sensor_id;sensor_type;location;lat;lon;timestamp;P1;durP1;ratioP1;P2;durP2;ratioP2
54167;SDS011;68429;50.958;3.592;2023-06-14T00:01:50;6.90;;;3.63;;
54167;SDS011;68429;50.958;3.592;2023-06-14T00:04:16;7.93;;;3.97;;
54167;SDS011;68429;50.958;3.592;2023-06-14T00:06:42;6.13;;;3.53;;
54167;SDS011;68429;50.958;3.592;2023-06-14T00:09:10;7.68;;;3.50;;
54167;SDS011;68429;50.958;3.592;2023-06-14T00:11:39;5.05;;;3.05;;
54167;SDS011;68429;50.958;3.592;2023-06-14T00:14:05;8.10;;;3.85;;
54167;SDS011;68429;50.958;3.592;2023-06-14T00:16:31;11.40;;;3.90;;
54167;SDS011;68429;50.958;3.592;2023-06-14T00:18:58;6.40;;;3.33;;
54167;SDS011;68429;50.958;3.592;2023-06-14T00:21:27;8.23;;;3.45;;
54167;SDS011;68429;50.958;3.592;2023-06-14T00:23:54;5.75;;;3.80;;
54167;SDS011;68429;50.958;3.592;2023-06-14T00:26:20;4.30;;;3.67;;
54167;SDS011;68429;50.958;3.592;2023-06-14T00:28:46;12.35;;;3.55;;
54167;SDS011;68429;50.958;3.592;2023-06-14T00:31:12;9.73;;;3.60;;
54167;SDS011;68429;50.958;3.592;2023-06-14T00:33:37;7.43;;;4.53;;
54167;SDS011;68429;50.958;3.592;2023-06-14T00:36:03;7.60;;;4.10;;
54167;SDS011;68429;50.958;3.592;2023-06-14T00:38:29;10.85;;;4.22;;
54167;SDS011;68429;50.958;3.592;2023-06-14T00:40:55;4.80;;;3.85;;
54167;SDS011;68429;50.958;3.592;2023-06-14T00:43:20;11.77;;;3.80;;
54167;SDS011;68429;50.958;3.592;2023-06-14T00:45:46;11.07;;;4.03;;
54167;SDS011;68429;50.958;3.592;2023-06-14T00:48:12;5.60;;;3.75;;
54167;SDS011;68429;50.958;3.592;2023-06-14T00:50:38;6.95;;;3.55;;
54167;SDS011;68429;50.958;3.592;2023-06-14T00:53:05;6.78;;;3.67;;
54167;SDS011;68429;50.958;3.592;2023-06-14T00:55:31;6.65;;;3.65;;
54167;SDS011;68429;50.958;3.592;2023-06-14T00:57:57;5.43;;;3.90;;
54167;SDS011;68429;50.958;3.592;2023-06-14T01:00:26;16.75;;;3.67;;
54167;SDS011;68429;50.958;3.592;2023-06-14T01:02:53;10.38;;;4.05;;
54167;SDS011;68429;50.958;3.592;2023-06-14T01:05:20;5.22;;;3.50;;
54167;SDS011;68429;50.958;3.592;2023-06-14T01:08:06;8.52;;;3.85;;
54167;SDS011;68429;50.958;3.592;2023-06-14T01:10:41;5.82;;;3.97;;
54167;SDS011;68429;50.958;3.592;2023-06-14T01:13:20;5.32;;;4.20;;
54167;SDS011;68429;50.958;3.592;2023-06-14T01:15:47;5.82;;;4.35;;
54167;SDS011;68429;50.958;3.592;2023-06-14T01:18:14;6.55;;;4.10;;
54167;SDS011;68429;50.958;3.592;2023-06-14T01:20:43;4.35;;;3.65;;
54167;SDS011;68429;50.958;3.592;2023-06-14T01:23:16;7.65;;;4.10;;
54167;SDS011;68429;50.958;3.592;2023-06-14T01:25:43;10.40;;;4.20;;
54167;SDS011;68429;50.958;3.592;2023-06-14T01:28:09;9.73;;;4.35;;
54167;SDS011;68429;50.958;3.592;2023-06-14T01:30:36;12.55;;;4.70;;
54167;SDS011;68429;50.958;3.592;2023-06-14T01:33:04;6.88;;;4.65;;
54167;SDS011;68429;50.958;3.592;2023-06-14T01:35:30;6.40;;;4.43;;
54167;SDS011;68429;50.958;3.592;2023-06-14T01:37:56;8.65;;;4.38;;
54167;SDS011;68429;50.958;3.592;2023-06-14T01:40:24;6.43;;;4.32;;
54167;SDS011;68429;50.958;3.592;2023-06-14T01:42:50;9.77;;;4.50;;
54167;SDS011;68429;50.958;3.592;2023-06-14T01:45:17;7.65;;;5.10;;
54167;SDS011;68429;50.958;3.592;2023-06-14T01:47:44;8.75;;;4.63;;
54167;SDS011;68429;50.958;3.592;2023-06-14T01:50:11;6.85;;;4.85;;
54167;SDS011;68429;50.958;3.592;2023-06-14T01:52:37;8.10;;;5.05;;
54167;SDS011;68429;50.958;3.592;2023-06-14T01:55:04;8.10;;;4.68;;
54167;SDS011;68429;50.958;3.592;2023-06-14T01:57:30;9.23;;;5.03;;
54167;SDS011;68429;50.958;3.592;2023-06-14T01:59:56;8.40;;;4.63;;
54167;SDS011;68429;50.958;3.592;2023-06-14T02:02:22;9.43;;;4.28;;
54167;SDS011;68429;50.958;3.592;2023-06-14T02:04:47;5.75;;;5.00;;
54167;SDS011;68429;50.958;3.592;2023-06-14T02:07:13;7.80;;;4.88;;
54167;SDS011;68429;50.958;3.592;2023-06-14T02:09:42;9.85;;;4.95;;
54167;SDS011;68429;50.958;3.592;2023-06-14T02:12:08;9.43;;;5.18;;
54167;SDS011;68429;50.958;3.592;2023-06-14T02:14:35;11.13;;;5.03;;
54167;SDS011;68429;50.958;3.592;2023-06-14T02:17:01;9.23;;;5.28;;
54167;SDS011;68429;50.958;3.592;2023-06-14T02:19:27;6.57;;;4.93;;
54167;SDS011;68429;50.958;3.592;2023-06-14T02:21:52;6.63;;;4.90;;
54167;SDS011;68429;50.958;3.592;2023-06-14T02:24:18;6.38;;;5.30;;
54167;SDS011;68429;50.958;3.592;2023-06-14T02:26:44;11.35;;;5.25;;
54167;SDS011;68429;50.958;3.592;2023-06-14T02:29:09;7.95;;;5.28;;
54167;SDS011;68429;50.958;3.592;2023-06-14T02:31:37;7.30;;;5.20;;
54167;SDS011;68429;50.958;3.592;2023-06-14T02:34:03;8.18;;;4.93;;
54167;SDS011;68429;50.958;3.592;2023-06-14T02:36:29;6.30;;;5.00;;
54167;SDS011;68429;50.958;3.592;2023-06-14T02:38:55;13.88;;;4.72;;
54167;SDS011;68429;50.958;3.592;2023-06-14T02:41:23;7.53;;;5.25;;
54167;SDS011;68429;50.958;3.592;2023-06-14T02:43:49;8.02;;;5.20;;
54167;SDS011;68429;50.958;3.592;2023-06-14T02:46:15;8.65;;;4.95;;
54167;SDS011;68429;50.958;3.592;2023-06-14T02:48:40;10.70;;;5.50;;
54167;SDS011;68429;50.958;3.592;2023-06-14T02:51:06;11.15;;;5.28;;
54167;SDS011;68429;50.958;3.592;2023-06-14T02:53:33;8.32;;;5.07;;
54167;SDS011;68429;50.958;3.592;2023-06-14T02:55:59;10.13;;;5.63;;
54167;SDS011;68429;50.958;3.592;2023-06-14T02:58:26;7.18;;;4.78;;
54167;SDS011;68429;50.958;3.592;2023-06-14T03:00:52;11.02;;;5.70;;
54167;SDS011;68429;50.958;3.592;2023-06-14T03:03:20;7.23;;;4.80;;
54167;SDS011;68429;50.958;3.592;2023-06-14T03:05:47;9.65;;;5.60;;
54167;SDS011;68429;50.958;3.592;2023-06-14T03:08:15;8.18;;;5.90;;
54167;SDS011;68429;50.958;3.592;2023-06-14T03:10:44;6.53;;;5.40;;
54167;SDS011;68429;50.958;3.592;2023-06-14T03:13:13;10.75;;;5.72;;
54167;SDS011;68429;50.958;3.592;2023-06-14T03:15:39;9.60;;;5.63;;
54167;SDS011;68429;50.958;3.592;2023-06-14T03:18:10;11.63;;;5.30;;
54167;SDS011;68429;50.958;3.592;2023-06-14T03:20:37;11.75;;;4.97;;
54167;SDS011;68429;50.958;3.592;2023-06-14T03:23:04;8.88;;;5.53;;
54167;SDS011;68429;50.958;3.592;2023-06-14T03:25:30;8.55;;;5.85;;
54167;SDS011;68429;50.958;3.592;2023-06-14T03:27:56;9.35;;;5.57;;
54167;SDS011;68429;50.958;3.592;2023-06-14T03:30:22;6.22;;;5.28;;
54167;SDS011;68429;50.958;3.592;2023-06-14T03:32:48;7.53;;;5.10;;
54167;SDS011;68429;50.958;3.592;2023-06-14T03:35:17;9.15;;;5.28;;
54167;SDS011;68429;50.958;3.592;2023-06-14T03:37:45;6.28;;;5.40;;
54167;SDS011;68429;50.958;3.592;2023-06-14T03:40:12;14.40;;;5.45;;
54167;SDS011;68429;50.958;3.592;2023-06-14T03:42:40;8.77;;;4.88;;
54167;SDS011;68429;50.958;3.592;2023-06-14T03:45:06;6.70;;;5.25;;
54167;SDS011;68429;50.958;3.592;2023-06-14T03:47:32;10.82;;;5.30;;
54167;SDS011;68429;50.958;3.592;2023-06-14T03:49:58;10.10;;;4.90;;
54167;SDS011;68429;50.958;3.592;2023-06-14T03:52:23;8.68;;;4.90;;
54167;SDS011;68429;50.958;3.592;2023-06-14T03:54:50;8.40;;;4.53;;
54167;SDS011;68429;50.958;3.592;2023-06-14T03:57:16;9.85;;;5.53;;
54167;SDS011;68429;50.958;3.592;2023-06-14T03:59:42;12.10;;;5.20;;
54167;SDS011;68429;50.958;3.592;2023-06-14T04:02:08;12.90;;;5.10;;
54167;SDS011;68429;50.958;3.592;2023-06-14T04:04:34;5.75;;;4.45;;
54167;SDS011;68429;50.958;3.592;2023-06-14T04:07:00;8.00;;;5.43;;
54167;SDS011;68429;50.958;3.592;2023-06-14T04:09:28;9.20;;;5.03;;
54167;SDS011;68429;50.958;3.592;2023-06-14T04:11:55;8.95;;;5.25;;
54167;SDS011;68429;50.958;3.592;2023-06-14T04:14:21;6.65;;;5.03;;
54167;SDS011;68429;50.958;3.592;2023-06-14T04:16:47;6.30;;;4.78;;
54167;SDS011;68429;50.958;3.592;2023-06-14T04:19:14;5.30;;;4.30;;
54167;SDS011;68429;50.958;3.592;2023-06-14T04:21:40;9.07;;;5.00;;
54167;SDS011;68429;50.958;3.592;2023-06-14T04:24:06;9.95;;;4.60;;
54167;SDS011;68429;50.958;3.592;2023-06-14T04:26:38;7.00;;;5.03;;
54167;SDS011;68429;50.958;3.592;2023-06-14T04:29:04;13.13;;;6.10;;
54167;SDS011;68429;50.958;3.592;2023-06-14T04:31:30;10.20;;;4.75;;
54167;SDS011;68429;50.958;3.592;2023-06-14T04:33:59;8.95;;;4.50;;
54167;SDS011;68429;50.958;3.592;2023-06-14T04:36:25;6.28;;;4.53;;
54167;SDS011;68429;50.958;3.592;2023-06-14T04:38:53;6.78;;;4.72;;
54167;SDS011;68429;50.958;3.592;2023-06-14T04:41:22;10.40;;;5.07;;
54167;SDS011;68429;50.958;3.592;2023-06-14T04:43:53;11.85;;;5.53;;
54167;SDS011;68429;50.958;3.592;2023-06-14T04:46:19;8.70;;;5.15;;
54167;SDS011;68429;50.958;3.592;2023-06-14T04:48:45;6.40;;;4.75;;
54167;SDS011;68429;50.958;3.592;2023-06-14T04:51:12;11.23;;;4.35;;
54167;SDS011;68429;50.958;3.592;2023-06-14T04:53:38;6.65;;;4.28;;
54167;SDS011;68429;50.958;3.592;2023-06-14T04:56:04;22.73;;;5.60;;
54167;SDS011;68429;50.958;3.592;2023-06-14T04:58:29;6.55;;;4.53;;
54167;SDS011;68429;50.958;3.592;2023-06-14T05:00:55;9.73;;;5.30;;
54167;SDS011;68429;50.958;3.592;2023-06-14T05:03:24;9.80;;;5.07;;
54167;SDS011;68429;50.958;3.592;2023-06-14T05:05:51;10.02;;;5.25;;
54167;SDS011;68429;50.958;3.592;2023-06-14T05:08:18;7.38;;;5.00;;
54167;SDS011;68429;50.958;3.592;2023-06-14T05:10:45;6.72;;;5.05;;
54167;SDS011;68429;50.958;3.592;2023-06-14T05:13:10;6.60;;;4.75;;
54167;SDS011;68429;50.958;3.592;2023-06-14T05:15:36;10.57;;;5.43;;
54167;SDS011;68429;50.958;3.592;2023-06-14T05:18:02;10.40;;;5.00;;
54167;SDS011;68429;50.958;3.592;2023-06-14T05:20:28;9.82;;;5.30;;
54167;SDS011;68429;50.958;3.592;2023-06-14T05:22:54;6.50;;;4.82;;
54167;SDS011;68429;50.958;3.592;2023-06-14T05:25:20;13.27;;;5.25;;
54167;SDS011;68429;50.958;3.592;2023-06-14T05:27:46;7.28;;;5.35;;
54167;SDS011;68429;50.958;3.592;2023-06-14T05:30:13;13.90;;;5.00;;
54167;SDS011;68429;50.958;3.592;2023-06-14T05:32:39;18.40;;;4.70;;
54167;SDS011;68429;50.958;3.592;2023-06-14T05:35:05;7.88;;;5.05;;
54167;SDS011;68429;50.958;3.592;2023-06-14T05:37:31;8.63;;;5.18;;
54167;SDS011;68429;50.958;3.592;2023-06-14T05:39:57;11.13;;;4.75;;
54167;SDS011;68429;50.958;3.592;2023-06-14T05:42:23;20.73;;;5.22;;
54167;SDS011;68429;50.958;3.592;2023-06-14T05:44:49;23.73;;;5.82;;
54167;SDS011;68429;50.958;3.592;2023-06-14T05:47:14;16.67;;;4.68;;
54167;SDS011;68429;50.958;3.592;2023-06-14T05:49:41;16.52;;;4.82;;
54167;SDS011;68429;50.958;3.592;2023-06-14T05:52:07;9.00;;;5.30;;
54167;SDS011;68429;50.958;3.592;2023-06-14T05:54:33;11.73;;;5.40;;
54167;SDS011;68429;50.958;3.592;2023-06-14T05:56:59;14.10;;;4.75;;
54167;SDS011;68429;50.958;3.592;2023-06-14T05:59:29;9.05;;;4.68;;
54167;SDS011;68429;50.958;3.592;2023-06-14T06:01:55;11.90;;;4.47;;
54167;SDS011;68429;50.958;3.592;2023-06-14T06:04:21;15.35;;;5.20;;
54167;SDS011;68429;50.958;3.592;2023-06-14T06:06:46;6.78;;;4.05;;
54167;SDS011;68429;50.958;3.592;2023-06-14T06:09:12;8.48;;;5.13;;
54167;SDS011;68429;50.958;3.592;2023-06-14T06:11:39;8.10;;;4.40;;
54167;SDS011;68429;50.958;3.592;2023-06-14T06:14:05;15.15;;;5.25;;
54167;SDS011;68429;50.958;3.592;2023-06-14T06:16:31;16.27;;;5.45;;
54167;SDS011;68429;50.958;3.592;2023-06-14T06:18:57;5.50;;;4.13;;
54167;SDS011;68429;50.958;3.592;2023-06-14T06:21:23;9.43;;;4.82;;
54167;SDS011;68429;50.958;3.592;2023-06-14T06:23:49;6.03;;;4.80;;
54167;SDS011;68429;50.958;3.592;2023-06-14T06:26:17;8.82;;;4.75;;
54167;SDS011;68429;50.958;3.592;2023-06-14T06:28:43;7.85;;;4.78;;
54167;SDS011;68429;50.958;3.592;2023-06-14T06:31:08;10.80;;;4.97;;
54167;SDS011;68429;50.958;3.592;2023-06-14T06:33:36;13.27;;;4.93;;
54167;SDS011;68429;50.958;3.592;2023-06-14T06:36:02;10.57;;;5.40;;
54167;SDS011;68429;50.958;3.592;2023-06-14T06:38:28;6.88;;;4.53;;
54167;SDS011;68429;50.958;3.592;2023-06-14T06:40:53;9.82;;;5.50;;
54167;SDS011;68429;50.958;3.592;2023-06-14T06:43:19;15.98;;;4.70;;
54167;SDS011;68429;50.958;3.592;2023-06-14T06:45:45;6.38;;;4.40;;
54167;SDS011;68429;50.958;3.592;2023-06-14T06:48:11;6.93;;;4.22;;
54167;SDS011;68429;50.958;3.592;2023-06-14T06:50:37;11.98;;;4.63;;
54167;SDS011;68429;50.958;3.592;2023-06-14T06:53:03;5.97;;;4.53;;
54167;SDS011;68429;50.958;3.592;2023-06-14T06:55:29;12.10;;;4.93;;
54167;SDS011;68429;50.958;3.592;2023-06-14T06:57:55;21.75;;;4.90;;
54167;SDS011;68429;50.958;3.592;2023-06-14T07:00:21;8.40;;;4.68;;
54167;SDS011;68429;50.958;3.592;2023-06-14T07:02:47;10.68;;;4.50;;
54167;SDS011;68429;50.958;3.592;2023-06-14T07:05:12;12.60;;;4.78;;
54167;SDS011;68429;50.958;3.592;2023-06-14T07:07:38;8.30;;;4.20;;
54167;SDS011;68429;50.958;3.592;2023-06-14T07:10:04;11.15;;;4.78;;
54167;SDS011;68429;50.958;3.592;2023-06-14T07:12:31;6.05;;;4.25;;
54167;SDS011;68429;50.958;3.592;2023-06-14T07:15:01;10.93;;;4.10;;
54167;SDS011;68429;50.958;3.592;2023-06-14T07:17:27;5.95;;;4.13;;
54167;SDS011;68429;50.958;3.592;2023-06-14T07:19:53;12.48;;;4.95;;
54167;SDS011;68429;50.958;3.592;2023-06-14T07:22:18;7.72;;;4.88;;
54167;SDS011;68429;50.958;3.592;2023-06-14T07:24:45;8.57;;;4.30;;
54167;SDS011;68429;50.958;3.592;2023-06-14T07:27:10;8.90;;;4.38;;
54167;SDS011;68429;50.958;3.592;2023-06-14T07:29:38;8.18;;;3.60;;
54167;SDS011;68429;50.958;3.592;2023-06-14T07:32:04;6.55;;;4.38;;
54167;SDS011;68429;50.958;3.592;2023-06-14T07:34:30;8.38;;;3.97;;
54167;SDS011;68429;50.958;3.592;2023-06-14T07:36:56;5.82;;;4.07;;
54167;SDS011;68429;50.958;3.592;2023-06-14T07:39:22;6.60;;;4.63;;
54167;SDS011;68429;50.958;3.592;2023-06-14T07:41:48;10.23;;;3.97;;
54167;SDS011;68429;50.958;3.592;2023-06-14T07:44:14;7.93;;;3.63;;
54167;SDS011;68429;50.958;3.592;2023-06-14T07:46:41;14.38;;;4.43;;
54167;SDS011;68429;50.958;3.592;2023-06-14T07:49:06;5.70;;;3.92;;
54167;SDS011;68429;50.958;3.592;2023-06-14T07:51:32;6.30;;;4.30;;
54167;SDS011;68429;50.958;3.592;2023-06-14T07:53:59;11.90;;;5.18;;
54167;SDS011;68429;50.958;3.592;2023-06-14T07:56:27;12.60;;;4.20;;
54167;SDS011;68429;50.958;3.592;2023-06-14T07:58:52;5.70;;;3.70;;
54167;SDS011;68429;50.958;3.592;2023-06-14T08:01:18;5.50;;;4.05;;
54167;SDS011;68429;50.958;3.592;2023-06-14T08:03:45;12.05;;;5.05;;
54167;SDS011;68429;50.958;3.592;2023-06-14T08:06:10;9.57;;;3.63;;
54167;SDS011;68429;50.958;3.592;2023-06-14T08:08:36;6.78;;;3.70;;
54167;SDS011;68429;50.958;3.592;2023-06-14T08:11:02;5.20;;;3.42;;
54167;SDS011;68429;50.958;3.592;2023-06-14T08:13:28;8.95;;;4.22;;
54167;SDS011;68429;50.958;3.592;2023-06-14T08:15:54;5.57;;;4.30;;
54167;SDS011;68429;50.958;3.592;2023-06-14T08:18:22;12.85;;;3.55;;
54167;SDS011;68429;50.958;3.592;2023-06-14T08:20:47;11.48;;;3.53;;
54167;SDS011;68429;50.958;3.592;2023-06-14T08:23:13;5.28;;;3.42;;
54167;SDS011;68429;50.958;3.592;2023-06-14T08:25:39;14.02;;;4.03;;
54167;SDS011;68429;50.958;3.592;2023-06-14T08:28:05;6.80;;;3.10;;
54167;SDS011;68429;50.958;3.592;2023-06-14T08:30:31;9.05;;;3.72;;
54167;SDS011;68429;50.958;3.592;2023-06-14T08:32:57;10.05;;;3.47;;
54167;SDS011;68429;50.958;3.592;2023-06-14T08:35:22;6.72;;;3.75;;
54167;SDS011;68429;50.958;3.592;2023-06-14T08:37:49;5.65;;;3.42;;
54167;SDS011;68429;50.958;3.592;2023-06-14T08:40:18;5.63;;;3.30;;
54167;SDS011;68429;50.958;3.592;2023-06-14T08:42:47;14.40;;;5.05;;
54167;SDS011;68429;50.958;3.592;2023-06-14T08:45:15;5.13;;;3.08;;
54167;SDS011;68429;50.958;3.592;2023-06-14T08:47:41;8.43;;;3.50;;
54167;SDS011;68429;50.958;3.592;2023-06-14T08:50:07;8.48;;;3.50;;
54167;SDS011;68429;50.958;3.592;2023-06-14T08:52:33;9.02;;;3.88;;
54167;SDS011;68429;50.958;3.592;2023-06-14T08:55:06;11.52;;;3.63;;
54167;SDS011;68429;50.958;3.592;2023-06-14T08:57:33;5.78;;;3.50;;
54167;SDS011;68429;50.958;3.592;2023-06-14T09:00:02;6.88;;;3.63;;
54167;SDS011;68429;50.958;3.592;2023-06-14T09:02:38;6.28;;;3.72;;
54167;SDS011;68429;50.958;3.592;2023-06-14T09:05:08;14.63;;;4.20;;
54167;SDS011;68429;50.958;3.592;2023-06-14T09:07:35;7.35;;;2.80;;
54167;SDS011;68429;50.958;3.592;2023-06-14T09:10:12;14.35;;;4.10;;
54167;SDS011;68429;50.958;3.592;2023-06-14T09:12:40;5.03;;;3.38;;
54167;SDS011;68429;50.958;3.592;2023-06-14T09:15:06;10.73;;;4.45;;
54167;SDS011;68429;50.958;3.592;2023-06-14T09:17:34;8.05;;;3.67;;
54167;SDS011;68429;50.958;3.592;2023-06-14T09:20:01;6.85;;;3.50;;
54167;SDS011;68429;50.958;3.592;2023-06-14T09:22:31;5.18;;;3.50;;
54167;SDS011;68429;50.958;3.592;2023-06-14T09:24:58;8.48;;;3.40;;
54167;SDS011;68429;50.958;3.592;2023-06-14T09:27:27;5.40;;;3.55;;
54167;SDS011;68429;50.958;3.592;2023-06-14T09:29:54;4.35;;;3.60;;
54167;SDS011;68429;50.958;3.592;2023-06-14T09:32:20;8.48;;;3.95;;
54167;SDS011;68429;50.958;3.592;2023-06-14T09:34:46;4.35;;;3.33;;
54167;SDS011;68429;50.958;3.592;2023-06-14T09:37:12;4.50;;;3.05;;
54167;SDS011;68429;50.958;3.592;2023-06-14T09:39:50;7.15;;;4.07;;
54167;SDS011;68429;50.958;3.592;2023-06-14T09:42:17;6.30;;;3.80;;
54167;SDS011;68429;50.958;3.592;2023-06-14T09:44:48;9.73;;;3.50;;
54167;SDS011;68429;50.958;3.592;2023-06-14T09:47:15;8.50;;;3.60;;
54167;SDS011;68429;50.958;3.592;2023-06-14T09:49:41;17.48;;;4.10;;
54167;SDS011;68429;50.958;3.592;2023-06-14T09:52:15;4.93;;;3.40;;
54167;SDS011;68429;50.958;3.592;2023-06-14T09:54:43;3.72;;;3.15;;
54167;SDS011;68429;50.958;3.592;2023-06-14T09:57:11;7.97;;;4.13;;
54167;SDS011;68429;50.958;3.592;2023-06-14T09:59:39;10.50;;;3.08;;
54167;SDS011;68429;50.958;3.592;2023-06-14T10:02:09;8.68;;;3.97;;
54167;SDS011;68429;50.958;3.592;2023-06-14T10:04:40;21.45;;;3.85;;
54167;SDS011;68429;50.958;3.592;2023-06-14T10:07:12;10.10;;;3.53;;
54167;SDS011;68429;50.958;3.592;2023-06-14T10:09:43;8.85;;;4.45;;
54167;SDS011;68429;50.958;3.592;2023-06-14T10:12:13;5.57;;;3.50;;
54167;SDS011;68429;50.958;3.592;2023-06-14T10:14:45;3.72;;;3.40;;
54167;SDS011;68429;50.958;3.592;2023-06-14T10:17:37;4.47;;;3.13;;
54167;SDS011;68429;50.958;3.592;2023-06-14T10:23:21;6.70;;;3.45;;
54167;SDS011;68429;50.958;3.592;2023-06-14T10:25:58;5.50;;;3.70;;
54167;SDS011;68429;50.958;3.592;2023-06-14T10:28:25;4.15;;;3.30;;
54167;SDS011;68429;50.958;3.592;2023-06-14T10:31:10;7.28;;;3.60;;
54167;SDS011;68429;50.958;3.592;2023-06-14T10:39:00;9.13;;;4.20;;
54167;SDS011;68429;50.958;3.592;2023-06-14T10:41:26;13.40;;;3.50;;
54167;SDS011;68429;50.958;3.592;2023-06-14T10:46:40;8.23;;;4.10;;
54167;SDS011;68429;50.958;3.592;2023-06-14T10:49:11;7.50;;;3.35;;
54167;SDS011;68429;50.958;3.592;2023-06-14T10:51:41;8.13;;;3.63;;
54167;SDS011;68429;50.958;3.592;2023-06-14T10:54:13;7.40;;;4.28;;
54167;SDS011;68429;50.958;3.592;2023-06-14T10:56:45;7.72;;;3.75;;
54167;SDS011;68429;50.958;3.592;2023-06-14T10:59:17;6.43;;;3.95;;
54167;SDS011;68429;50.958;3.592;2023-06-14T11:04:22;5.90;;;3.53;;
54167;SDS011;68429;50.958;3.592;2023-06-14T11:12:45;8.93;;;4.15;;
54167;SDS011;68429;50.958;3.592;2023-06-14T11:15:13;6.45;;;4.07;;
54167;SDS011;68429;50.958;3.592;2023-06-14T11:17:39;12.15;;;3.72;;
54167;SDS011;68429;50.958;3.592;2023-06-14T11:20:14;7.72;;;4.00;;
54167;SDS011;68429;50.958;3.592;2023-06-14T11:22:41;5.50;;;3.80;;
54167;SDS011;68429;50.958;3.592;2023-06-14T11:25:10;6.70;;;4.00;;
54167;SDS011;68429;50.958;3.592;2023-06-14T11:27:36;5.18;;;3.40;;
54167;SDS011;68429;50.958;3.592;2023-06-14T11:30:02;10.27;;;4.50;;
54167;SDS011;68429;50.958;3.592;2023-06-14T11:32:30;5.07;;;3.67;;
54167;SDS011;68429;50.958;3.592;2023-06-14T11:34:56;14.33;;;4.40;;
54167;SDS011;68429;50.958;3.592;2023-06-14T11:37:23;8.77;;;3.83;;
54167;SDS011;68429;50.958;3.592;2023-06-14T11:39:51;9.52;;;4.03;;
54167;SDS011;68429;50.958;3.592;2023-06-14T11:42:17;6.40;;;3.70;;
54167;SDS011;68429;50.958;3.592;2023-06-14T11:44:45;14.52;;;4.20;;
54167;SDS011;68429;50.958;3.592;2023-06-14T11:49:37;11.05;;;4.18;;
54167;SDS011;68429;50.958;3.592;2023-06-14T11:52:03;12.90;;;4.40;;
54167;SDS011;68429;50.958;3.592;2023-06-14T11:54:31;10.60;;;3.53;;
54167;SDS011;68429;50.958;3.592;2023-06-14T11:56:57;3.58;;;3.28;;
54167;SDS011;68429;50.958;3.592;2023-06-14T11:59:24;10.00;;;4.05;;
54167;SDS011;68429;50.958;3.592;2023-06-14T12:01:50;3.70;;;3.33;;
54167;SDS011;68429;50.958;3.592;2023-06-14T12:06:54;5.93;;;3.50;;
54167;SDS011;68429;50.958;3.592;2023-06-14T12:09:20;7.95;;;3.95;;
54167;SDS011;68429;50.958;3.592;2023-06-14T12:11:50;7.43;;;3.88;;
54167;SDS011;68429;50.958;3.592;2023-06-14T12:14:28;3.95;;;3.55;;
54167;SDS011;68429;50.958;3.592;2023-06-14T12:17:03;5.55;;;3.75;;
54167;SDS011;68429;50.958;3.592;2023-06-14T12:19:31;7.32;;;3.80;;
54167;SDS011;68429;50.958;3.592;2023-06-14T12:21:57;7.82;;;3.75;;
54167;SDS011;68429;50.958;3.592;2023-06-14T12:24:29;4.43;;;3.47;;
54167;SDS011;68429;50.958;3.592;2023-06-14T12:26:57;8.30;;;3.45;;
54167;SDS011;68429;50.958;3.592;2023-06-14T12:29:24;12.60;;;3.83;;
54167;SDS011;68429;50.958;3.592;2023-06-14T12:31:50;13.40;;;3.53;;
54167;SDS011;68429;50.958;3.592;2023-06-14T12:34:18;10.07;;;4.05;;
54167;SDS011;68429;50.958;3.592;2023-06-14T12:36:44;5.50;;;3.97;;
54167;SDS011;68429;50.958;3.592;2023-06-14T12:39:11;7.60;;;4.15;;
54167;SDS011;68429;50.958;3.592;2023-06-14T12:41:37;5.97;;;3.50;;
54167;SDS011;68429;50.958;3.592;2023-06-14T12:44:06;10.55;;;3.95;;
54167;SDS011;68429;50.958;3.592;2023-06-14T12:46:31;8.38;;;4.05;;
54167;SDS011;68429;50.958;3.592;2023-06-14T12:48:58;6.90;;;3.92;;
54167;SDS011;68429;50.958;3.592;2023-06-14T12:51:23;5.90;;;3.90;;
54167;SDS011;68429;50.958;3.592;2023-06-14T12:53:50;5.50;;;3.60;;
54167;SDS011;68429;50.958;3.592;2023-06-14T12:56:16;20.30;;;3.50;;
54167;SDS011;68429;50.958;3.592;2023-06-14T12:58:42;6.22;;;3.83;;
54167;SDS011;68429;50.958;3.592;2023-06-14T13:01:08;5.38;;;3.13;;
54167;SDS011;68429;50.958;3.592;2023-06-14T13:03:33;7.70;;;3.50;;
54167;SDS011;68429;50.958;3.592;2023-06-14T13:05:59;5.72;;;3.40;;
54167;SDS011;68429;50.958;3.592;2023-06-14T13:08:26;11.68;;;3.78;;
54167;SDS011;68429;50.958;3.592;2023-06-14T13:10:52;5.75;;;3.53;;
54167;SDS011;68429;50.958;3.592;2023-06-14T13:13:18;9.43;;;3.50;;
54167;SDS011;68429;50.958;3.592;2023-06-14T13:15:44;8.27;;;3.63;;
54167;SDS011;68429;50.958;3.592;2023-06-14T13:18:11;6.18;;;3.40;;
54167;SDS011;68429;50.958;3.592;2023-06-14T13:20:38;6.22;;;3.35;;
54167;SDS011;68429;50.958;3.592;2023-06-14T13:23:04;9.63;;;3.85;;
54167;SDS011;68429;50.958;3.592;2023-06-14T13:25:32;9.07;;;4.35;;
54167;SDS011;68429;50.958;3.592;2023-06-14T13:28:02;5.80;;;3.33;;
54167;SDS011;68429;50.958;3.592;2023-06-14T13:30:28;5.95;;;3.25;;
54167;SDS011;68429;50.958;3.592;2023-06-14T13:32:55;9.18;;;3.80;;
54167;SDS011;68429;50.958;3.592;2023-06-14T13:35:21;6.63;;;3.75;;
54167;SDS011;68429;50.958;3.592;2023-06-14T13:37:47;8.48;;;4.03;;
54167;SDS011;68429;50.958;3.592;2023-06-14T13:40:13;6.50;;;3.55;;
54167;SDS011;68429;50.958;3.592;2023-06-14T13:42:38;15.23;;;3.75;;
54167;SDS011;68429;50.958;3.592;2023-06-14T13:45:05;14.70;;;5.07;;
54167;SDS011;68429;50.958;3.592;2023-06-14T13:47:31;21.77;;;3.92;;
54167;SDS011;68429;50.958;3.592;2023-06-14T13:49:57;11.00;;;3.83;;
54167;SDS011;68429;50.958;3.592;2023-06-14T13:52:23;9.40;;;3.80;;
54167;SDS011;68429;50.958;3.592;2023-06-14T13:54:49;7.13;;;3.55;;
54167;SDS011;68429;50.958;3.592;2023-06-14T13:57:15;9.40;;;3.67;;
54167;SDS011;68429;50.958;3.592;2023-06-14T13:59:41;3.58;;;2.80;;
54167;SDS011;68429;50.958;3.592;2023-06-14T14:02:08;6.20;;;3.40;;
54167;SDS011;68429;50.958;3.592;2023-06-14T14:04:34;5.38;;;3.40;;
54167;SDS011;68429;50.958;3.592;2023-06-14T14:07:01;7.85;;;3.80;;
54167;SDS011;68429;50.958;3.592;2023-06-14T14:09:27;11.57;;;3.70;;
54167;SDS011;68429;50.958;3.592;2023-06-14T14:11:53;5.32;;;2.67;;
54167;SDS011;68429;50.958;3.592;2023-06-14T14:14:19;7.45;;;3.53;;
54167;SDS011;68429;50.958;3.592;2023-06-14T14:16:45;7.32;;;3.05;;
54167;SDS011;68429;50.958;3.592;2023-06-14T14:19:11;7.72;;;3.75;;
54167;SDS011;68429;50.958;3.592;2023-06-14T14:21:36;10.70;;;3.20;;
54167;SDS011;68429;50.958;3.592;2023-06-14T14:24:02;5.25;;;3.75;;
54167;SDS011;68429;50.958;3.592;2023-06-14T14:26:28;8.25;;;3.80;;
54167;SDS011;68429;50.958;3.592;2023-06-14T14:28:54;3.65;;;3.35;;
54167;SDS011;68429;50.958;3.592;2023-06-14T14:31:20;7.78;;;3.47;;
54167;SDS011;68429;50.958;3.592;2023-06-14T14:33:45;4.18;;;3.00;;
54167;SDS011;68429;50.958;3.592;2023-06-14T14:36:11;12.35;;;4.85;;
54167;SDS011;68429;50.958;3.592;2023-06-14T14:38:38;6.15;;;3.08;;
54167;SDS011;68429;50.958;3.592;2023-06-14T14:41:04;8.23;;;3.53;;
54167;SDS011;68429;50.958;3.592;2023-06-14T14:43:30;3.25;;;2.65;;
54167;SDS011;68429;50.958;3.592;2023-06-14T14:45:57;10.20;;;3.03;;
54167;SDS011;68429;50.958;3.592;2023-06-14T14:48:22;8.32;;;3.60;;
54167;SDS011;68429;50.958;3.592;2023-06-14T14:50:48;5.60;;;2.80;;
54167;SDS011;68429;50.958;3.592;2023-06-14T14:53:14;4.03;;;2.65;;
54167;SDS011;68429;50.958;3.592;2023-06-14T14:55:43;7.53;;;3.20;;
54167;SDS011;68429;50.958;3.592;2023-06-14T14:58:08;5.43;;;2.90;;
54167;SDS011;68429;50.958;3.592;2023-06-14T15:00:34;6.32;;;2.72;;
54167;SDS011;68429;50.958;3.592;2023-06-14T15:03:00;4.30;;;2.88;;
54167;SDS011;68429;50.958;3.592;2023-06-14T15:05:26;10.18;;;3.08;;
54167;SDS011;68429;50.958;3.592;2023-06-14T15:07:52;5.00;;;2.72;;